Hornitos, California
Current Conditions -  °F | °C
As of 10:45 AM on Saturday 20 Dec 2014 (Local Time) from KMER Reporting Station
Haze Haze  
Wind Chill: 54°   Ceiling: 2000
Heat Index: 54°   Visibility: 3mi
Dew Point: 54°   Wind: 0mph
Humidity: 100%   Direction: NA
Pressure: 30.23"   Gusts: NA
Location:  37.5°N, 120.24°W
Report Text: KMER 201845Z 00000KT 3SM BR FEW008 OVC020 12/12 A3023 RMK VIS E-W 2 1/2
Loading
Personal Weather Stations






























Interactive Weather Map New forecast layout! Learn more

10-Day Weather Forecast

Advertisements
Track Severe Weather on mobile